Time;durP1;ratioP1;P1;durP2;ratioP2;P2;SDS_P1;SDS_P2;PMS_P1;PMS_P2;Temp;Humidity;BMP_temperature;BMP_pressure;BME280_temperature;BME280_humidity;BME280_pressure;Samples;Min_cycle;Max_cycle;Signal;HPM_P1;HPM_P2
2023/06/22 00:02:16;;;;;;;6.60;5.13;;;20.90;99.90;;;;;;5113768;28;20226;-44
2023/06/22 00:04:43;;;;;;;7.83;5.10;;;20.90;99.90;;;;;;5113499;28;20595;-44
2023/06/22 00:07:08;;;;;;;7.67;4.63;;;20.90;99.90;;;;;;5113539;28;20182;-44
2023/06/22 00:09:34;;;;;;;6.30;4.87;;;20.80;99.90;;;;;;5113477;28;20170;-44
2023/06/22 00:11:59;;;;;;;5.43;4.93;;;20.80;99.90;;;;;;5113495;28;20648;-44
2023/06/22 00:14:25;;;;;;;5.73;5.03;;;20.80;99.90;;;;;;5113340;28;20198;-44
2023/06/22 00:16:54;;;;;;;6.77;5.00;;;20.80;99.90;;;;;;5113410;28;20577;-43
2023/06/22 00:19:23;;;;;;;5.53;4.47;;;20.80;99.90;;;;;;5113459;28;20201;-42
2023/06/22 00:21:53;;;;;;;8.83;4.43;;;20.80;99.90;;;;;;5114141;28;20185;-44
2023/06/22 00:24:19;;;;;;;6.17;4.90;;;20.80;99.90;;;;;;5113223;28;20710;-43
2023/06/22 00:26:45;;;;;;;6.20;5.00;;;20.70;99.90;;;;;;5113627;28;20261;-43
2023/06/22 00:29:11;;;;;;;11.30;4.80;;;20.70;99.90;;;;;;5113595;28;20703;-45
2023/06/22 00:31:36;;;;;;;7.43;4.47;;;20.60;99.90;;;;;;5113284;28;20208;-43
2023/06/22 00:34:02;;;;;;;10.93;5.47;;;20.60;99.90;;;;;;5113119;28;20709;-43
2023/06/22 00:36:28;;;;;;;6.17;5.40;;;20.60;99.90;;;;;;5117276;28;20205;-43
2023/06/22 00:38:53;;;;;;;6.80;5.17;;;20.60;99.90;;;;;;5117565;28;20269;-45
2023/06/22 00:41:19;;;;;;;7.47;5.00;;;20.60;99.90;;;;;;5117676;28;20162;-44
2023/06/22 00:43:45;;;;;;;7.17;4.93;;;20.50;99.90;;;;;;5117243;28;20202;-45
2023/06/22 00:46:11;;;;;;;6.57;5.27;;;20.50;99.90;;;;;;5117827;28;20178;-43
2023/06/22 00:48:36;;;;;;;7.10;5.57;;;20.50;99.90;;;;;;5117328;28;20606;-45
2023/06/22 00:51:03;;;;;;;6.10;5.50;;;20.50;99.90;;;;;;5116944;28;20261;-40
2023/06/22 00:53:28;;;;;;;7.23;5.60;;;20.40;99.90;;;;;;5116714;28;20239;-41
2023/06/22 00:55:55;;;;;;;7.97;6.03;;;20.40;99.90;;;;;;5116882;28;20197;-43
2023/06/22 00:58:22;;;;;;;7.97;5.70;;;20.40;99.90;;;;;;5117095;28;20210;-44
2023/06/22 01:00:48;;;;;;;8.37;5.73;;;20.40;99.90;;;;;;5116917;28;20303;-44
2023/06/22 01:03:14;;;;;;;6.97;6.17;;;20.40;99.90;;;;;;5116898;28;20182;-44
2023/06/22 01:05:40;;;;;;;8.63;6.30;;;20.30;99.90;;;;;;5116584;28;20746;-41
2023/06/22 01:08:37;;;;;;;10.73;7.37;;;20.30;99.90;;;;;;5116536;28;20197;-44
2023/06/22 01:11:14;;;;;;;8.00;6.83;;;20.30;99.90;;;;;;5116812;28;20159;-42
2023/06/22 01:14:01;;;;;;;7.50;6.23;;;20.20;99.90;;;;;;5116637;28;20234;-41
2023/06/22 01:16:30;;;;;;;10.03;6.90;;;20.20;99.90;;;;;;5116632;28;20172;-42
2023/06/22 01:19:00;;;;;;;9.30;7.07;;;20.10;99.90;;;;;;5116596;28;20186;-47
2023/06/22 01:21:29;;;;;;;9.83;6.70;;;20.10;99.90;;;;;;5116683;28;20203;-49
2023/06/22 01:24:15;;;;;;;8.27;6.10;;;20.10;99.90;;;;;;5116159;28;20202;-49
2023/06/22 01:27:36;;;;;;;8.63;6.70;;;20.10;99.90;;;;;;5116204;28;20638;-47
2023/06/22 01:30:05;;;;;;;9.43;7.33;;;20.10;99.90;;;;;;5098576;28;20723;-47
2023/06/22 01:32:34;;;;;;;10.10;6.70;;;20.00;99.90;;;;;;5116070;28;20179;-47
2023/06/22 01:35:03;;;;;;;13.40;7.60;;;20.00;99.90;;;;;;5115965;28;20213;-47
2023/06/22 01:37:31;;;;;;;9.30;7.00;;;20.00;99.90;;;;;;5115954;28;20650;-47
2023/06/22 01:39:58;;;;;;;12.97;7.70;;;20.00;99.90;;;;;;5116154;28;20182;-47
2023/06/22 01:42:25;;;;;;;12.00;7.37;;;20.00;99.90;;;;;;5115954;28;20197;-49
2023/06/22 01:44:52;;;;;;;9.57;6.67;;;19.90;99.90;;;;;;5115758;28;20198;-47
2023/06/22 01:47:19;;;;;;;10.03;6.73;;;19.90;99.90;;;;;;5115404;28;20186;-48
2023/06/22 01:49:45;;;;;;;9.10;6.80;;;19.90;99.90;;;;;;5116621;28;20174;-49
2023/06/22 01:52:11;;;;;;;13.40;7.43;;;19.90;99.90;;;;;;5115964;28;20174;-47
2023/06/22 01:54:37;;;;;;;10.47;7.27;;;19.90;99.90;;;;;;5115542;28;20210;-49
2023/06/22 01:57:03;;;;;;;10.40;7.83;;;19.90;99.90;;;;;;5115665;28;20170;-48
2023/06/22 01:59:36;;;;;;;10.70;7.20;;;19.90;99.90;;;;;;5115491;28;20178;-47
2023/06/22 02:02:06;;;;;;;8.63;7.40;;;19.90;99.90;;;;;;5115946;28;20159;-47
2023/06/22 02:04:43;;;;;;;11.13;7.67;;;19.90;99.90;;;;;;5097056;28;20206;-48
2023/06/22 02:07:13;;;;;;;12.90;7.87;;;19.80;99.90;;;;;;5115635;28;20163;-47
2023/06/22 02:09:42;;;;;;;8.97;7.50;;;19.90;99.90;;;;;;5115709;28;20174;-47
2023/06/22 02:12:10;;;;;;;10.13;7.80;;;19.90;99.90;;;;;;5115598;28;20171;-48
2023/06/22 02:14:36;;;;;;;8.47;7.20;;;19.90;99.90;;;;;;5115077;28;20242;-47
2023/06/22 02:17:04;;;;;;;11.30;7.47;;;19.90;99.90;;;;;;5115414;28;20179;-48
2023/06/22 02:19:33;;;;;;;11.23;8.10;;;19.80;99.90;;;;;;5115279;28;20194;-49
2023/06/22 02:21:58;;;;;;;8.87;7.50;;;19.90;99.90;;;;;;5115371;28;20596;-48
2023/06/22 02:24:24;;;;;;;12.83;8.40;;;19.80;99.90;;;;;;5114995;28;20198;-48
2023/06/22 02:26:49;;;;;;;9.83;7.40;;;19.80;99.90;;;;;;5115203;28;20178;-49
2023/06/22 02:29:15;;;;;;;10.93;7.63;;;19.80;99.90;;;;;;5114990;28;20216;-47
2023/06/22 02:31:41;;;;;;;10.27;7.50;;;19.80;99.90;;;;;;5115191;28;20185;-48
2023/06/22 02:34:06;;;;;;;10.60;7.10;;;19.80;99.90;;;;;;5114771;28;20206;-46
2023/06/22 02:36:33;;;;;;;13.73;7.97;;;19.80;99.90;;;;;;5115154;28;20642;-48
2023/06/22 02:39:01;;;;;;;10.17;7.53;;;19.80;99.90;;;;;;5116064;28;20550;-47
2023/06/22 02:41:27;;;;;;;9.77;7.70;;;19.80;99.90;;;;;;5115804;28;20178;-48
2023/06/22 02:43:52;;;;;;;11.90;7.73;;;19.80;99.90;;;;;;5116267;28;20206;-47
2023/06/22 02:46:18;;;;;;;13.57;7.33;;;19.80;99.90;;;;;;5115161;28;20865;-48
2023/06/22 02:48:44;;;;;;;12.97;8.10;;;19.80;99.90;;;;;;5114678;28;20638;-47
2023/06/22 02:51:09;;;;;;;16.47;8.43;;;19.80;99.90;;;;;;5114961;28;20228;-47
2023/06/22 02:53:35;;;;;;;9.77;7.47;;;19.80;99.90;;;;;;5114425;28;20677;-48
2023/06/22 02:56:06;;;;;;;9.27;7.60;;;19.80;99.90;;;;;;5114936;28;20178;-48
2023/06/22 02:58:38;;;;;;;10.13;7.70;;;19.70;99.90;;;;;;5113886;28;20258;-49
2023/06/22 03:01:05;;;;;;;13.60;8.03;;;19.80;99.90;;;;;;5114975;28;20167;-47
2023/06/22 03:03:31;;;;;;;10.33;7.27;;;19.70;99.90;;;;;;5114639;28;20186;-49
2023/06/22 03:05:56;;;;;;;8.50;7.37;;;19.70;99.90;;;;;;5114652;28;20226;-49
2023/06/22 03:08:22;;;;;;;11.97;8.03;;;19.70;99.90;;;;;;5114381;28;20262;-48
2023/06/22 03:10:47;;;;;;;11.03;7.73;;;19.80;99.90;;;;;;5114347;28;20644;-48
2023/06/22 03:13:13;;;;;;;12.93;8.23;;;19.80;99.90;;;;;;5114218;28;20209;-48
2023/06/22 03:15:39;;;;;;;11.70;8.33;;;19.80;99.90;;;;;;5114229;28;20198;-46
2023/06/22 03:18:04;;;;;;;11.77;8.10;;;19.80;99.90;;;;;;5114432;28;20163;-48
2023/06/22 03:20:33;;;;;;;10.57;7.77;;;19.80;99.90;;;;;;5095773;28;20193;-48
2023/06/22 03:22:59;;;;;;;13.23;9.10;;;19.80;99.90;;;;;;5114397;28;20182;-47
2023/06/22 03:25:24;;;;;;;11.87;8.03;;;19.80;99.90;;;;;;5114193;28;20194;-46
2023/06/22 03:27:50;;;;;;;10.30;7.90;;;19.80;99.90;;;;;;5114639;28;20579;-47
2023/06/22 03:30:16;;;;;;;16.40;8.00;;;19.80;99.90;;;;;;5114264;28;20178;-48
2023/06/22 03:32:43;;;;;;;12.73;8.73;;;19.70;99.90;;;;;;5114031;28;20174;-48
2023/06/22 03:35:09;;;;;;;14.23;9.03;;;19.70;99.90;;;;;;5113979;28;20289;-47
2023/06/22 03:37:34;;;;;;;13.73;8.87;;;19.70;99.90;;;;;;5114383;28;20206;-48
2023/06/22 03:40:00;;;;;;;12.73;8.83;;;19.70;99.90;;;;;;5114062;28;20177;-47
2023/06/22 03:42:26;;;;;;;11.50;8.73;;;19.70;99.90;;;;;;5114224;28;20178;-47
2023/06/22 03:44:51;;;;;;;12.30;8.37;;;19.70;99.90;;;;;;5095653;28;20662;-48
2023/06/22 03:47:17;;;;;;;13.77;8.83;;;19.70;99.90;;;;;;5114106;28;20254;-47
2023/06/22 03:49:43;;;;;;;13.03;9.13;;;19.80;99.90;;;;;;5114182;28;20586;-48
2023/06/22 03:52:09;;;;;;;10.63;8.43;;;19.70;99.90;;;;;;5114436;28;20174;-48
2023/06/22 03:54:35;;;;;;;14.10;9.10;;;19.70;99.90;;;;;;5113525;28;20217;-45
2023/06/22 03:57:00;;;;;;;11.87;8.37;;;19.70;99.90;;;;;;5114086;28;20215;-48
2023/06/22 03:59:26;;;;;;;12.77;9.47;;;19.70;99.90;;;;;;5114041;28;20537;-48
2023/06/22 04:01:51;;;;;;;11.17;8.93;;;19.80;99.90;;;;;;5113798;28;20665;-49
2023/06/22 04:04:18;;;;;;;11.20;8.47;;;19.80;99.90;;;;;;5113846;28;20197;-47
2023/06/22 04:06:43;;;;;;;14.67;9.20;;;19.80;99.90;;;;;;5113923;28;20178;-48
2023/06/22 04:09:09;;;;;;;11.73;9.83;;;19.80;99.90;;;;;;5115549;28;20189;-48
2023/06/22 04:11:34;;;;;;;13.03;9.67;;;19.80;99.90;;;;;;5118206;28;20231;-47
2023/06/22 04:14:00;;;;;;;12.07;9.63;;;19.80;99.90;;;;;;5117715;28;20214;-48
2023/06/22 04:16:26;;;;;;;12.77;9.83;;;19.80;99.90;;;;;;5117931;28;20181;-47
2023/06/22 04:18:52;;;;;;;12.03;9.50;;;19.80;99.90;;;;;;5117493;28;20592;-47
2023/06/22 04:21:19;;;;;;;13.80;9.60;;;19.80;99.90;;;;;;5117843;28;20170;-48
2023/06/22 04:23:45;;;;;;;14.73;10.57;;;19.70;99.90;;;;;;5117764;28;20257;-48
2023/06/22 04:26:11;;;;;;;14.23;9.97;;;19.70;99.90;;;;;;5117667;28;20189;-48
2023/06/22 04:28:37;;;;;;;15.00;9.83;;;19.70;99.90;;;;;;5117464;28;20186;-46
2023/06/22 04:31:03;;;;;;;12.60;9.60;;;19.70;99.90;;;;;;5118042;28;20181;-47
2023/06/22 04:33:29;;;;;;;14.77;9.60;;;19.70;99.90;;;;;;5117234;28;20220;-48
2023/06/22 04:35:57;;;;;;;15.77;10.27;;;19.70;99.90;;;;;;5117685;28;20174;-48
2023/06/22 04:38:23;;;;;;;13.83;10.93;;;19.70;99.90;;;;;;5117633;28;20192;-47
2023/06/22 04:40:49;;;;;;;16.90;10.27;;;19.70;99.90;;;;;;5117202;28;20175;-47
2023/06/22 04:43:14;;;;;;;14.87;9.73;;;19.70;99.90;;;;;;5117372;28;20216;-48
2023/06/22 04:45:41;;;;;;;16.50;10.33;;;19.70;99.90;;;;;;5117377;28;20355;-48
2023/06/22 04:48:09;;;;;;;11.97;9.13;;;19.70;99.90;;;;;;5117120;28;20178;-49
2023/06/22 04:50:38;;;;;;;13.33;9.40;;;19.70;99.90;;;;;;5117290;28;20186;-48
2023/06/22 04:53:05;;;;;;;15.60;9.83;;;19.70;99.90;;;;;;5116979;28;22145;-49
2023/06/22 04:55:31;;;;;;;12.07;9.37;;;19.80;99.90;;;;;;5117212;28;20198;-47
2023/06/22 04:58:04;;;;;;;10.33;8.83;;;19.80;99.90;;;;;;5116951;28;20661;-46
2023/06/22 05:00:30;;;;;;;13.43;9.33;;;19.80;99.90;;;;;;5117141;28;20170;-47
2023/06/22 05:02:57;;;;;;;12.87;8.07;;;19.80;99.90;;;;;;5117092;28;20178;-48
2023/06/22 05:05:23;;;;;;;15.70;9.47;;;19.90;99.90;;;;;;5116541;28;20721;-48
2023/06/22 05:07:52;;;;;;;12.70;9.23;;;19.90;99.90;;;;;;5116958;28;20186;-47
2023/06/22 05:10:19;;;;;;;14.20;9.27;;;19.90;99.90;;;;;;5098274;28;20212;-49
2023/06/22 05:12:45;;;;;;;13.53;9.17;;;19.90;99.90;;;;;;5116798;28;20598;-47
2023/06/22 05:15:11;;;;;;;9.83;8.63;;;19.90;99.90;;;;;;5116491;28;20285;-47
2023/06/22 05:17:42;;;;;;;12.70;9.43;;;19.90;99.90;;;;;;5116607;28;20322;-45
2023/06/22 05:20:09;;;;;;;13.10;8.63;;;20.00;99.90;;;;;;5115727;28;20193;-46
2023/06/22 05:22:34;;;;;;;10.93;8.60;;;20.00;99.90;;;;;;5116308;28;20178;-45
2023/06/22 05:25:00;;;;;;;10.93;8.27;;;20.00;99.90;;;;;;5116105;28;20208;-45
2023/06/22 05:27:25;;;;;;;17.50;9.20;;;19.90;99.90;;;;;;5116513;28;20255;-45
2023/06/22 05:29:51;;;;;;;9.87;8.27;;;20.00;99.90;;;;;;5116160;28;20178;-45
2023/06/22 05:32:17;;;;;;;15.67;9.43;;;20.00;99.90;;;;;;5116339;28;20178;-45
2023/06/22 05:34:42;;;;;;;14.87;8.47;;;20.00;99.90;;;;;;5115895;28;20206;-45
2023/06/22 05:37:09;;;;;;;21.53;8.60;;;20.00;99.90;;;;;;5116288;28;20205;-45
2023/06/22 05:39:37;;;;;;;13.00;9.37;;;20.00;99.90;;;;;;5115907;28;20177;-47
2023/06/22 05:42:04;;;;;;;14.93;8.80;;;20.00;99.90;;;;;;5116314;28;20178;-46
2023/06/22 05:44:30;;;;;;;14.77;8.47;;;20.10;99.90;;;;;;5116012;28;20277;-46
2023/06/22 05:46:56;;;;;;;10.80;9.07;;;20.10;99.90;;;;;;5115952;28;20213;-47
2023/06/22 05:49:22;;;;;;;14.53;9.93;;;20.10;99.90;;;;;;5116384;28;20229;-46
2023/06/22 05:51:48;;;;;;;15.97;9.20;;;20.10;99.90;;;;;;5116044;28;20549;-45
2023/06/22 05:54:15;;;;;;;21.33;9.20;;;20.10;99.90;;;;;;5115841;28;20275;-46
2023/06/22 05:56:41;;;;;;;16.33;9.63;;;20.10;99.90;;;;;;5115664;28;20646;-44
2023/06/22 05:59:06;;;;;;;17.10;8.70;;;20.10;99.90;;;;;;5115757;28;20173;-46
2023/06/22 06:01:35;;;;;;;13.17;9.60;;;20.10;99.90;;;;;;5115992;28;20658;-45
2023/06/22 06:04:04;;;;;;;11.57;8.87;;;20.20;99.90;;;;;;5115830;28;20286;-46
2023/06/22 06:06:30;;;;;;;11.60;9.13;;;20.20;99.90;;;;;;5116180;28;20533;-47
2023/06/22 06:08:55;;;;;;;12.10;9.37;;;20.30;99.90;;;;;;5115819;28;20178;-44
2023/06/22 06:11:22;;;;;;;11.03;9.30;;;20.30;99.90;;;;;;5097097;28;20243;-46
2023/06/22 06:13:47;;;;;;;13.63;9.50;;;20.30;99.90;;;;;;5115772;28;20279;-46
2023/06/22 06:16:13;;;;;;;13.13;9.70;;;20.30;99.90;;;;;;5115719;28;20205;-46
2023/06/22 06:18:38;;;;;;;14.23;10.33;;;20.30;99.90;;;;;;5097006;28;20677;-46
2023/06/22 06:21:04;;;;;;;11.27;9.37;;;20.40;99.90;;;;;;5115294;28;20202;-46
2023/06/22 06:23:30;;;;;;;10.67;9.57;;;20.40;99.90;;;;;;5115289;28;20670;-47
2023/06/22 06:25:55;;;;;;;12.33;9.87;;;20.40;99.90;;;;;;5115516;28;20174;-44
2023/06/22 06:28:21;;;;;;;13.60;9.57;;;20.40;99.90;;;;;;5115689;28;20174;-46
2023/06/22 06:30:47;;;;;;;12.90;9.17;;;20.40;99.90;;;;;;5115545;28;20235;-47
2023/06/22 06:33:13;;;;;;;17.60;10.10;;;20.50;99.90;;;;;;5114031;28;20202;-46
2023/06/22 06:35:38;;;;;;;14.10;9.73;;;20.50;99.90;;;;;;5114973;28;20190;-47
2023/06/22 06:38:04;;;;;;;11.77;9.80;;;20.50;99.90;;;;;;5115184;28;20174;-45
2023/06/22 06:40:30;;;;;;;18.53;9.47;;;20.50;99.90;;;;;;5115095;28;20181;-42
2023/06/22 06:42:55;;;;;;;14.63;9.60;;;20.60;99.90;;;;;;5115062;28;20658;-44
2023/06/22 06:45:22;;;;;;;14.27;9.53;;;20.60;99.90;;;;;;5114878;28;20281;-41
2023/06/22 06:47:49;;;;;;;14.80;9.07;;;20.60;99.90;;;;;;5115360;28;20181;-41
2023/06/22 06:50:15;;;;;;;13.27;8.73;;;20.70;99.90;;;;;;5115134;28;20175;-42
2023/06/22 06:52:41;;;;;;;15.70;9.10;;;20.70;99.90;;;;;;5114683;28;20185;-42
2023/06/22 06:55:10;;;;;;;12.30;9.23;;;20.80;99.90;;;;;;5115499;28;20221;-42
2023/06/22 06:57:37;;;;;;;21.83;9.77;;;20.80;99.90;;;;;;5114630;28;20529;-40
2023/06/22 07:00:09;;;;;;;12.97;10.10;;;20.80;99.90;;;;;;5114837;28;20181;-40
2023/06/22 07:02:34;;;;;;;16.23;10.23;;;20.80;99.90;;;;;;5114815;28;20173;-41
2023/06/22 07:05:00;;;;;;;20.77;11.30;;;20.90;99.90;;;;;;5096289;28;20202;-39
2023/06/22 07:07:25;;;;;;;19.93;10.80;;;21.00;99.90;;;;;;5114603;28;20179;-42
2023/06/22 07:09:51;;;;;;;20.43;10.67;;;21.00;99.90;;;;;;5114422;28;20178;-40
2023/06/22 07:12:16;;;;;;;22.37;11.47;;;21.10;99.90;;;;;;5114775;28;20579;-40
2023/06/22 07:14:42;;;;;;;24.37;10.53;;;21.20;99.90;;;;;;5114620;28;20240;-41
2023/06/22 07:17:08;;;;;;;19.37;10.17;;;21.20;99.90;;;;;;5114409;28;20181;-40
2023/06/22 07:19:33;;;;;;;16.77;10.63;;;21.30;99.90;;;;;;5114166;28;20537;-43
2023/06/22 07:21:59;;;;;;;21.73;10.27;;;21.50;99.90;;;;;;5114622;28;20266;-43
2023/06/22 07:24:25;;;;;;;17.80;11.10;;;21.60;99.90;;;;;;5114205;28;20279;-41
2023/06/22 07:26:50;;;;;;;18.03;10.13;;;21.70;99.90;;;;;;5114791;28;20178;-42
2023/06/22 07:29:17;;;;;;;16.00;11.07;;;21.80;99.90;;;;;;5114309;28;20545;-42
2023/06/22 07:31:43;;;;;;;18.23;11.20;;;21.80;99.90;;;;;;5114215;28;20253;-42
2023/06/22 07:34:09;;;;;;;17.37;10.50;;;21.90;99.90;;;;;;5114062;28;20289;-41
2023/06/22 07:36:35;;;;;;;16.50;9.90;;;22.10;99.90;;;;;;5114314;28;20539;-42
2023/06/22 07:39:02;;;;;;;15.73;10.70;;;22.20;99.90;;;;;;5114206;28;20592;-42
2023/06/22 07:41:28;;;;;;;14.40;11.53;;;22.30;99.90;;;;;;5113933;28;20252;-42
2023/06/22 07:43:54;;;;;;;16.40;10.73;;;22.50;99.90;;;;;;5113613;28;20198;-43
2023/06/22 07:46:19;;;;;;;12.70;9.63;;;22.40;99.90;;;;;;5114095;28;20178;-43
2023/06/22 07:48:45;;;;;;;14.77;10.80;;;22.50;99.90;;;;;;5114349;28;20193;-41
2023/06/22 07:51:13;;;;;;;13.60;11.17;;;22.60;99.90;;;;;;5113862;28;20178;-42
2023/06/22 07:53:42;;;;;;;17.80;10.00;;;22.60;99.90;;;;;;5113962;28;20598;-41
2023/06/22 07:56:10;;;;;;;25.97;10.00;;;22.80;99.90;;;;;;5114497;28;20177;-41
2023/06/22 07:58:36;;;;;;;16.43;9.83;;;22.90;99.90;;;;;;5113871;28;20186;-43
2023/06/22 08:01:02;;;;;;;17.73;9.67;;;23.00;99.90;;;;;;5095707;28;20279;-42
2023/06/22 08:03:28;;;;;;;17.33;10.00;;;23.20;99.90;;;;;;5114073;28;20280;-41
2023/06/22 08:05:53;;;;;;;16.50;11.07;;;23.50;99.90;;;;;;5114174;28;20708;-42
2023/06/22 08:08:19;;;;;;;15.87;10.50;;;23.60;99.90;;;;;;5113783;28;20174;-42
2023/06/22 08:10:45;;;;;;;13.47;8.90;;;23.70;99.90;;;;;;5114047;28;20265;-41
2023/06/22 08:13:10;;;;;;;17.17;9.70;;;23.70;99.90;;;;;;5113479;28;20172;-41
2023/06/22 08:15:36;;;;;;;20.80;10.43;;;23.70;99.90;;;;;;5113853;28;20251;-40
2023/06/22 08:18:02;;;;;;;15.27;10.47;;;23.80;99.90;;;;;;5113883;28;20246;-40
2023/06/22 08:20:27;;;;;;;17.97;9.37;;;23.80;99.90;;;;;;5113456;28;20285;-42
2023/06/22 08:22:54;;;;;;;18.40;10.20;;;23.80;99.90;;;;;;5113682;28;20253;-43
2023/06/22 08:25:20;;;;;;;16.97;9.97;;;23.80;99.90;;;;;;5113673;28;20255;-41
2023/06/22 08:27:49;;;;;;;14.03;9.53;;;23.80;99.90;;;;;;5113840;28;20265;-40
2023/06/22 08:30:16;;;;;;;15.83;9.07;;;24.00;99.90;;;;;;5113531;28;20170;-42
2023/06/22 08:32:42;;;;;;;19.03;9.97;;;24.10;99.90;;;;;;5113528;28;20175;-42
2023/06/22 08:35:08;;;;;;;10.73;9.10;;;24.30;99.90;;;;;;5113466;28;20232;-42
2023/06/22 08:37:35;;;;;;;12.40;8.93;;;24.40;99.90;;;;;;5113487;28;20658;-43
2023/06/22 08:40:04;;;;;;;17.37;8.90;;;24.60;99.90;;;;;;5113481;28;20182;-42
2023/06/22 08:42:30;;;;;;;11.30;8.30;;;24.60;99.90;;;;;;5113454;28;20253;-43
2023/06/22 08:44:55;;;;;;;10.53;8.47;;;24.70;99.90;;;;;;5095146;28;20226;-42
2023/06/22 08:47:21;;;;;;;11.37;7.90;;;24.80;99.90;;;;;;5113660;28;20175;-42
2023/06/22 08:49:47;;;;;;;11.87;8.87;;;25.00;99.90;;;;;;5113270;28;20647;-43
2023/06/22 08:52:13;;;;;;;9.70;8.40;;;25.20;99.90;;;;;;5114055;28;20182;-43
2023/06/22 08:54:38;;;;;;;11.27;7.80;;;25.30;99.90;;;;;;5113144;28;20221;-44
2023/06/22 08:57:04;;;;;;;10.87;7.13;;;25.60;99.90;;;;;;5116581;28;20535;-42
2023/06/22 08:59:30;;;;;;;14.87;8.10;;;25.90;99.90;;;;;;5116817;28;20536;-41
2023/06/22 09:01:56;;;;;;;11.20;7.37;;;26.10;99.90;;;;;;5116743;28;20171;-44
2023/06/22 09:04:22;;;;;;;15.00;9.10;;;26.20;99.90;;;;;;5116604;28;20280;-43
2023/06/22 09:06:49;;;;;;;11.50;8.13;;;26.40;99.90;;;;;;5116671;28;20269;-43
2023/06/22 09:09:16;;;;;;;19.43;8.33;;;26.50;99.90;;;;;;5116644;28;20170;-43
2023/06/22 09:11:42;;;;;;;8.63;7.67;;;26.60;99.90;;;;;;5116903;28;20661;-43
2023/06/22 09:14:08;;;;;;;11.07;7.27;;;26.50;99.90;;;;;;5116439;28;20690;-44
2023/06/22 09:16:34;;;;;;;9.90;7.00;;;26.40;99.90;;;;;;5116681;28;20181;-44
2023/06/22 09:19:00;;;;;;;9.63;7.40;;;26.40;99.90;;;;;;5116355;28;20277;-43
2023/06/22 09:21:25;;;;;;;8.47;7.33;;;26.50;99.90;;;;;;5098155;28;20179;-43
2023/06/22 09:23:51;;;;;;;9.87;7.50;;;26.60;99.90;;;;;;5116382;28;20227;-42
2023/06/22 09:26:20;;;;;;;13.00;7.60;;;26.80;99.90;;;;;;5116570;28;20178;-43
2023/06/22 09:28:46;;;;;;;10.90;8.20;;;27.10;99.90;;;;;;5116791;28;20263;-43
2023/06/22 09:31:11;;;;;;;11.40;7.47;;;27.20;99.90;;;;;;5116480;28;20215;-42
2023/06/22 09:33:40;;;;;;;15.17;6.90;;;27.20;99.90;;;;;;5116318;28;20201;-43
2023/06/22 09:36:09;;;;;;;7.07;6.37;;;27.10;99.90;;;;;;5116088;28;20174;-45
2023/06/22 09:38:38;;;;;;;12.23;6.47;;;27.20;99.90;;;;;;5116358;28;20174;-43
2023/06/22 09:41:04;;;;;;;11.93;6.70;;;27.30;99.90;;;;;;5116197;28;20223;-42
2023/06/22 09:43:32;;;;;;;8.93;6.17;;;27.30;99.90;;;;;;5116090;28;20227;-43
2023/06/22 09:45:58;;;;;;;7.97;6.57;;;27.40;99.90;;;;;;5115938;28;20202;-43
2023/06/22 09:48:24;;;;;;;7.53;6.07;;;27.40;99.90;;;;;;5116170;28;20202;-44
2023/06/22 09:50:49;;;;;;;6.87;5.87;;;27.30;99.90;;;;;;5115848;28;20642;-43
2023/06/22 09:53:15;;;;;;;6.47;5.60;;;27.30;99.90;;;;;;5115736;28;20181;-43
2023/06/22 09:55:40;;;;;;;7.73;5.73;;;27.40;99.90;;;;;;5115565;28;20190;-42
2023/06/22 09:58:06;;;;;;;10.67;5.67;;;27.50;99.90;;;;;;5116275;28;20180;-43
2023/06/22 10:00:32;;;;;;;7.17;5.77;;;27.40;99.90;;;;;;5116077;28;20660;-41
2023/06/22 10:02:57;;;;;;;6.20;5.20;;;27.30;99.90;;;;;;5115595;28;20650;-44
2023/06/22 10:05:23;;;;;;;8.23;5.22;;;27.30;99.90;;;;;;5097144;28;20198;-44
2023/06/22 10:07:49;;;;;;;7.67;5.67;;;27.40;99.90;;;;;;5115546;28;20205;-44
2023/06/22 10:10:15;;;;;;;6.63;5.17;;;27.40;99.90;;;;;;5116075;28;20671;-41
2023/06/22 10:12:46;;;;;;;5.40;4.67;;;27.40;99.90;;;;;;5115334;28;20179;-43
2023/06/22 10:15:12;;;;;;;5.20;4.70;;;27.50;99.90;;;;;;5115216;28;20202;-43
2023/06/22 10:17:38;;;;;;;6.43;5.00;;;27.50;99.90;;;;;;5115562;28;20174;-41
2023/06/22 10:20:11;;;;;;;5.10;4.60;;;27.60;99.90;;;;;;5115271;28;20711;-44
2023/06/22 10:22:46;;;;;;;6.17;4.73;;;27.70;99.90;;;;;;5115171;28;20674;-43
2023/06/22 10:25:12;;;;;;;6.83;4.50;;;27.70;99.90;;;;;;5115414;28;20202;-43
2023/06/22 10:27:42;;;;;;;11.57;5.17;;;27.70;99.90;;;;;;5115142;28;20662;-44
2023/06/22 10:30:09;;;;;;;8.27;5.43;;;27.80;99.90;;;;;;5115034;28;20174;-44
2023/06/22 10:32:34;;;;;;;5.90;5.13;;;27.70;99.90;;;;;;5115060;28;20178;-44
2023/06/22 10:35:00;;;;;;;7.00;4.90;;;27.70;99.90;;;;;;5115058;28;20255;-44
2023/06/22 10:37:25;;;;;;;6.27;4.97;;;27.70;99.90;;;;;;5114994;28;20170;-45
2023/06/22 10:39:51;;;;;;;6.20;5.60;;;27.70;99.90;;;;;;5114815;28;20249;-45
2023/06/22 10:42:17;;;;;;;7.57;5.53;;;27.60;99.90;;;;;;5114843;28;20634;-46
2023/06/22 10:44:44;;;;;;;8.70;5.80;;;27.50;99.90;;;;;;5114695;28;20658;-46
2023/06/22 10:47:11;;;;;;;7.67;6.20;;;27.30;99.90;;;;;;5115029;28;20178;-46
2023/06/22 10:49:38;;;;;;;9.90;6.23;;;27.20;99.90;;;;;;5114961;28;20182;-45
2023/06/22 10:52:04;;;;;;;12.43;6.43;;;26.90;99.90;;;;;;5114850;28;20187;-46
2023/06/22 10:54:29;;;;;;;10.47;6.30;;;26.70;99.90;;;;;;5114606;28;20266;-45
2023/06/22 10:56:55;;;;;;;10.17;5.97;;;26.50;99.90;;;;;;5114931;28;20533;-45
2023/06/22 10:59:23;;;;;;;7.43;5.60;;;26.30;99.90;;;;;;5114774;28;20181;-44
2023/06/22 11:01:49;;;;;;;12.07;6.23;;;26.10;99.90;;;;;;5114709;28;20554;-45
2023/06/22 11:04:14;;;;;;;9.50;5.97;;;25.90;99.90;;;;;;5114678;28;20285;-45
2023/06/22 11:06:40;;;;;;;9.43;6.00;;;25.60;99.90;;;;;;5114374;28;20181;-44
2023/06/22 11:09:06;;;;;;;11.57;6.17;;;25.20;99.90;;;;;;5114636;28;20263;-44
2023/06/22 11:11:32;;;;;;;10.30;6.30;;;25.00;99.90;;;;;;5114584;28;20223;-44
2023/06/22 11:13:58;;;;;;;9.43;6.10;;;24.80;99.90;;;;;;5114392;28;20213;-43
2023/06/22 11:16:23;;;;;;;10.27;6.77;;;24.50;99.90;;;;;;5114435;28;20170;-43
2023/06/22 11:18:49;;;;;;;7.70;6.07;;;24.40;99.90;;;;;;5113759;28;20198;-46
2023/06/22 11:21:14;;;;;;;10.90;6.77;;;24.20;99.90;;;;;;5114215;28;20170;-42
2023/06/22 11:23:41;;;;;;;9.60;7.53;;;24.00;99.90;;;;;;5114354;28;20544;-44
2023/06/22 11:26:07;;;;;;;7.73;6.63;;;23.80;99.90;;;;;;5114324;28;20219;-43
2023/06/22 11:28:33;;;;;;;16.87;8.47;;;23.70;99.90;;;;;;5114080;28;20584;-43
2023/06/22 11:30:58;;;;;;;12.00;7.53;;;23.70;99.90;;;;;;5114200;28;20186;-42
2023/06/22 11:33:24;;;;;;;8.43;7.33;;;23.60;99.90;;;;;;5114478;28;20221;-44
2023/06/22 11:35:50;;;;;;;11.70;8.57;;;23.70;99.90;;;;;;5113920;28;20193;-44
2023/06/22 11:38:15;;;;;;;10.10;7.07;;;23.70;99.90;;;;;;5114363;28;20154;-43
2023/06/22 11:40:41;;;;;;;9.20;7.93;;;23.70;99.90;;;;;;5113966;28;20265;-44
2023/06/22 11:43:06;;;;;;;12.03;8.20;;;23.70;99.90;;;;;;5113880;28;20174;-42
2023/06/22 11:45:32;;;;;;;14.13;8.20;;;23.70;99.90;;;;;;5114285;28;20196;-43
2023/06/22 11:47:58;;;;;;;12.67;7.57;;;23.80;99.90;;;;;;5114102;28;20180;-42
2023/06/22 11:50:24;;;;;;;11.73;7.73;;;23.90;99.90;;;;;;5114012;28;20540;-44
2023/06/22 11:52:49;;;;;;;11.13;7.17;;;23.90;99.90;;;;;;5114072;28;20174;-43
2023/06/22 11:55:15;;;;;;;11.57;6.90;;;24.00;99.90;;;;;;5113873;28;20717;-44
2023/06/22 11:57:55;;;;;;;8.40;6.83;;;24.00;99.90;;;;;;5113715;28;20166;-42
2023/06/22 12:00:23;;;;;;;11.73;8.47;;;24.10;99.90;;;;;;5114010;28;20155;-42
2023/06/22 12:02:49;;;;;;;10.03;8.97;;;24.20;99.90;;;;;;5113970;28;20178;-43
2023/06/22 12:05:15;;;;;;;14.27;10.30;;;24.30;99.90;;;;;;5113526;28;20205;-44
2023/06/22 12:07:40;;;;;;;10.37;9.23;;;24.50;99.90;;;;;;5113574;28;20673;-43
2023/06/22 12:10:06;;;;;;;11.43;10.30;;;24.50;99.90;;;;;;5113629;28;20175;-43
2023/06/22 12:12:33;;;;;;;11.70;10.50;;;24.50;99.90;;;;;;5113666;28;20582;-44
2023/06/22 12:15:03;;;;;;;12.67;10.03;;;24.60;99.90;;;;;;5095617;28;20213;-43
2023/06/22 12:17:29;;;;;;;14.20;11.47;;;24.60;99.90;;;;;;5113756;28;20182;-43
2023/06/22 12:19:54;;;;;;;13.30;10.63;;;24.50;99.90;;;;;;5113585;28;20223;-40
2023/06/22 12:22:20;;;;;;;11.57;9.63;;;24.50;99.90;;;;;;5113978;28;20178;-43
2023/06/22 12:24:45;;;;;;;11.90;9.93;;;24.40;99.90;;;;;;5113273;28;20197;-44
2023/06/22 12:27:11;;;;;;;16.37;11.57;;;24.30;99.90;;;;;;5113533;28;20210;-42
2023/06/22 12:29:36;;;;;;;13.27;10.73;;;24.10;99.90;;;;;;5114174;28;20206;-41
2023/06/22 12:32:02;;;;;;;12.90;11.07;;;24.10;99.90;;;;;;5117718;28;20189;-41
2023/06/22 12:34:28;;;;;;;14.90;12.80;;;24.10;99.90;;;;;;5098989;28;20304;-43
2023/06/22 12:36:54;;;;;;;18.17;13.83;;;24.00;99.90;;;;;;5117280;28;20257;-43